Time;durP1;ratioP1;P1;durP2;ratioP2;P2;SDS_P1;SDS_P2;PMS_P1;PMS_P2;Temp;Humidity;BMP_temperature;BMP_pressure;BME280_temperature;BME280_humidity;BME280_pressure;Samples;Min_cycle;Max_cycle;Signal;HPM_P1;HPM_P2
2021/05/29 00:01:27;;;;;;;8.07;5.33;;;;;;;;;;5116492;28;20442;-72
2021/05/29 00:03:54;;;;;;;7.53;5.80;;;;;;;;;;5117174;28;20509;-71
2021/05/29 00:06:20;;;;;;;5.60;5.10;;;;;;;;;;5116217;28;20435;-72
2021/05/29 00:08:47;;;;;;;5.83;5.30;;;;;;;;;;5116330;28;20447;-71
2021/05/29 00:11:14;;;;;;;5.30;4.50;;;;;;;;;;5116959;28;20543;-71
2021/05/29 00:13:41;;;;;;;5.47;4.70;;;;;;;;;;5116569;28;20846;-71
2021/05/29 00:16:09;;;;;;;4.83;4.33;;;;;;;;;;5116196;28;20438;-71
2021/05/29 00:18:36;;;;;;;4.80;4.37;;;;;;;;;;5116493;28;20441;-71
2021/05/29 00:21:02;;;;;;;5.03;4.50;;;;;;;;;;5116429;28;20477;-71
2021/05/29 00:23:29;;;;;;;5.60;4.50;;;;;;;;;;5116042;28;20565;-71
2021/05/29 00:25:56;;;;;;;5.00;4.60;;;;;;;;;;5116676;28;20852;-71
2021/05/29 00:28:22;;;;;;;4.50;4.10;;;;;;;;;;5116022;28;20507;-70
2021/05/29 00:30:49;;;;;;;4.90;4.10;;;;;;;;;;5116730;28;20443;-71
2021/05/29 00:33:17;;;;;;;6.33;4.30;;;;;;;;;;5116195;28;20502;-71
2021/05/29 00:35:43;;;;;;;5.93;4.57;;;;;;;;;;5116481;28;20442;-71
2021/05/29 00:38:10;;;;;;;6.00;4.70;;;;;;;;;;5116478;28;20446;-71
2021/05/29 00:40:37;;;;;;;6.27;5.67;;;;;;;;;;5115762;28;21000;-71
2021/05/29 00:43:04;;;;;;;7.60;5.60;;;;;;;;;;5115876;28;20563;-71
2021/05/29 00:45:31;;;;;;;7.00;5.10;;;;;;;;;;5116116;28;20449;-70
2021/05/29 00:48:00;;;;;;;6.17;5.57;;;;;;;;;;5116020;28;20529;-70
2021/05/29 00:50:28;;;;;;;5.37;4.87;;;;;;;;;;5115826;28;20442;-72
2021/05/29 00:52:54;;;;;;;5.20;4.70;;;;;;;;;;5116082;28;20442;-72
2021/05/29 00:55:21;;;;;;;8.07;5.30;;;;;;;;;;5115481;28;20456;-72
2021/05/29 00:57:48;;;;;;;5.00;4.37;;;;;;;;;;5115693;28;20443;-72
2021/05/29 01:00:17;;;;;;;5.93;5.27;;;;;;;;;;5115894;28;20537;-73
2021/05/29 01:02:43;;;;;;;6.20;5.13;;;;;;;;;;5115458;28;20471;-72
2021/05/29 01:05:11;;;;;;;6.00;5.13;;;;;;;;;;5115177;28;20445;-73
2021/05/29 01:07:39;;;;;;;6.47;5.43;;;;;;;;;;5116338;28;20771;-72
2021/05/29 01:10:06;;;;;;;4.97;4.57;;;;;;;;;;5115400;28;20442;-73
2021/05/29 01:12:33;;;;;;;6.07;5.00;;;;;;;;;;5115382;28;20507;-72
2021/05/29 01:15:01;;;;;;;10.33;5.50;;;;;;;;;;5115387;28;20434;-72
2021/05/29 01:17:29;;;;;;;6.60;5.50;;;;;;;;;;5114192;28;20982;-72
2021/05/29 01:19:56;;;;;;;7.10;5.30;;;;;;;;;;5115228;28;20509;-72
2021/05/29 01:22:40;;;;;;;5.73;5.23;;;;;;;;;;5115162;28;20437;-72
2021/05/29 01:25:10;;;;;;;8.70;5.57;;;;;;;;;;5116116;28;20884;-71
2021/05/29 01:27:36;;;;;;;6.00;5.40;;;;;;;;;;5115569;28;20470;-72
2021/05/29 01:30:04;;;;;;;6.87;5.20;;;;;;;;;;5115443;28;20513;-72
2021/05/29 01:32:33;;;;;;;5.57;5.07;;;;;;;;;;5115048;28;20438;-72
2021/05/29 01:35:01;;;;;;;7.40;5.70;;;;;;;;;;5115021;28;20442;-71
2021/05/29 01:37:28;;;;;;;7.33;5.97;;;;;;;;;;5114965;28;20448;-70
2021/05/29 01:39:54;;;;;;;8.10;6.17;;;;;;;;;;5114545;28;20927;-70
2021/05/29 01:42:22;;;;;;;6.17;5.67;;;;;;;;;;5115126;28;20449;-71
2021/05/29 01:44:49;;;;;;;6.50;5.20;;;;;;;;;;5114657;28;20943;-70
2021/05/29 01:47:16;;;;;;;6.70;5.93;;;;;;;;;;5114458;28;20441;-71
2021/05/29 01:49:43;;;;;;;6.80;6.20;;;;;;;;;;5114703;28;20535;-70
2021/05/29 01:52:09;;;;;;;7.73;6.80;;;;;;;;;;5114715;28;20529;-70
2021/05/29 01:54:36;;;;;;;7.20;6.50;;;;;;;;;;5114912;28;20437;-70
2021/05/29 01:57:03;;;;;;;8.13;6.50;;;;;;;;;;5114592;28;20203;-70
2021/05/29 01:59:31;;;;;;;9.73;6.28;;;;;;;;;;5114270;28;20445;-71
2021/05/29 02:01:57;;;;;;;8.23;7.43;;;;;;;;;;5114587;28;20192;-72
2021/05/29 02:04:24;;;;;;;9.67;7.30;;;;;;;;;;5114032;28;20488;-72
2021/05/29 02:06:51;;;;;;;7.93;6.90;;;;;;;;;;5114582;28;20497;-73
2021/05/29 02:09:17;;;;;;;8.77;7.65;;;;;;;;;;5114378;28;20249;-71
2021/05/29 02:11:44;;;;;;;8.37;7.53;;;;;;;;;;5113683;28;20201;-72
2021/05/29 02:14:11;;;;;;;9.00;8.10;;;;;;;;;;5114659;28;20839;-72
2021/05/29 02:16:38;;;;;;;7.10;6.40;;;;;;;;;;5114299;28;20445;-72
2021/05/29 02:19:05;;;;;;;9.33;7.17;;;;;;;;;;5113935;28;20447;-71
2021/05/29 02:21:32;;;;;;;10.80;6.90;;;;;;;;;;5114212;28;20437;-71
2021/05/29 02:23:58;;;;;;;11.13;8.67;;;;;;;;;;5113813;28;20473;-70
2021/05/29 02:26:25;;;;;;;13.63;8.25;;;;;;;;;;5113995;28;20477;-70
2021/05/29 02:28:54;;;;;;;9.40;8.40;;;;;;;;;;5113854;28;20618;-70
2021/05/29 02:31:21;;;;;;;12.53;9.20;;;;;;;;;;5114404;28;20438;-71
2021/05/29 02:33:49;;;;;;;8.82;7.93;;;;;;;;;;5114044;28;20443;-70
2021/05/29 02:36:15;;;;;;;10.98;7.90;;;;;;;;;;5114076;28;20201;-70
2021/05/29 02:38:42;;;;;;;11.10;8.43;;;;;;;;;;5113683;28;20199;-70
2021/05/29 02:41:10;;;;;;;10.80;8.53;;;;;;;;;;5114311;28;20449;-72
2021/05/29 02:43:37;;;;;;;10.60;9.50;;;;;;;;;;5113619;28;20975;-72
2021/05/29 02:46:04;;;;;;;12.55;10.30;;;;;;;;;;5113671;28;20236;-72
2021/05/29 02:48:31;;;;;;;13.60;8.65;;;;;;;;;;5113887;28;20199;-72
2021/05/29 02:50:58;;;;;;;15.15;10.50;;;;;;;;;;5113897;28;20654;-72
2021/05/29 02:53:25;;;;;;;14.27;9.30;;;;;;;;;;5113764;28;20206;-72
2021/05/29 02:55:52;;;;;;;14.23;10.67;;;;;;;;;;5114189;28;20438;-72
2021/05/29 02:58:18;;;;;;;15.13;10.45;;;;;;;;;;5113538;28;20438;-72
2021/05/29 03:00:46;;;;;;;13.23;10.90;;;;;;;;;;5113474;28;20297;-72
2021/05/29 03:03:13;;;;;;;15.20;10.67;;;;;;;;;;5113399;28;21063;-72
2021/05/29 03:05:41;;;;;;;12.23;9.93;;;;;;;;;;5114237;28;20525;-72
2021/05/29 03:08:09;;;;;;;11.93;10.70;;;;;;;;;;5113902;28;20448;-72
2021/05/29 03:10:36;;;;;;;15.95;11.45;;;;;;;;;;5113738;28;20460;-72
2021/05/29 03:13:02;;;;;;;16.33;10.38;;;;;;;;;;5113709;28;20201;-72
2021/05/29 03:15:29;;;;;;;13.33;11.10;;;;;;;;;;5113404;28;20200;-72
2021/05/29 03:17:58;;;;;;;16.08;11.18;;;;;;;;;;5113680;28;20445;-72
2021/05/29 03:20:26;;;;;;;16.25;10.30;;;;;;;;;;5113681;28;20199;-72
2021/05/29 03:22:53;;;;;;;19.08;11.48;;;;;;;;;;5114022;28;20421;-71
2021/05/29 03:25:20;;;;;;;15.70;11.53;;;;;;;;;;5113312;28;20197;-71
2021/05/29 03:27:49;;;;;;;13.83;11.43;;;;;;;;;;5113718;28;20465;-71
2021/05/29 03:30:17;;;;;;;16.43;11.50;;;;;;;;;;5114144;28;20441;-71
2021/05/29 03:32:45;;;;;;;15.77;11.27;;;;;;;;;;5113512;28;20463;-71
2021/05/29 03:35:12;;;;;;;17.00;11.33;;;;;;;;;;5113499;28;20541;-71
2021/05/29 03:37:39;;;;;;;19.20;12.27;;;;;;;;;;5113520;28;20442;-72
2021/05/29 03:40:06;;;;;;;17.97;13.33;;;;;;;;;;5113549;28;20199;-71
2021/05/29 03:42:34;;;;;;;14.05;11.40;;;;;;;;;;5116041;28;20446;-71
2021/05/29 03:45:01;;;;;;;18.30;12.30;;;;;;;;;;5117124;28;20195;-71
2021/05/29 03:47:27;;;;;;;20.75;14.10;;;;;;;;;;5116865;28;20436;-72
2021/05/29 03:49:54;;;;;;;18.58;13.13;;;;;;;;;;5117703;28;20192;-72
2021/05/29 03:52:21;;;;;;;21.98;13.95;;;;;;;;;;5116728;28;20289;-72
2021/05/29 03:54:47;;;;;;;19.03;13.53;;;;;;;;;;5116634;28;20204;-72
2021/05/29 03:57:14;;;;;;;19.50;15.30;;;;;;;;;;5116916;28;20437;-72
2021/05/29 03:59:42;;;;;;;19.83;13.45;;;;;;;;;;5116913;28;20793;-72
2021/05/29 04:02:08;;;;;;;18.05;13.85;;;;;;;;;;5116716;28;20603;-73
2021/05/29 04:04:35;;;;;;;20.97;14.53;;;;;;;;;;5116923;28;20310;-72
2021/05/29 04:07:02;;;;;;;23.20;17.10;;;;;;;;;;5116654;28;20536;-72
2021/05/29 04:09:28;;;;;;;19.20;14.88;;;;;;;;;;5116397;28;20448;-72
2021/05/29 04:11:55;;;;;;;31.40;15.30;;;;;;;;;;5116808;28;20196;-72
2021/05/29 04:14:22;;;;;;;20.58;14.95;;;;;;;;;;5117029;28;20499;-72
2021/05/29 04:16:51;;;;;;;24.48;14.80;;;;;;;;;;5116929;28;20207;-72
2021/05/29 04:19:17;;;;;;;20.00;15.07;;;;;;;;;;5116143;28;20287;-72
2021/05/29 04:21:44;;;;;;;20.50;14.95;;;;;;;;;;5116417;28;20560;-71
2021/05/29 04:24:11;;;;;;;22.33;15.23;;;;;;;;;;5116447;28;20596;-71
2021/05/29 04:26:37;;;;;;;26.57;15.43;;;;;;;;;;5116285;28;20224;-72
2021/05/29 04:29:04;;;;;;;17.70;14.17;;;;;;;;;;5116231;28;20560;-72
2021/05/29 04:31:31;;;;;;;17.63;13.50;;;;;;;;;;5116178;28;20444;-72
2021/05/29 04:33:58;;;;;;;16.90;13.43;;;;;;;;;;5116543;28;20548;-72
2021/05/29 04:36:25;;;;;;;24.20;15.47;;;;;;;;;;5116123;28;20952;-73
2021/05/29 04:38:52;;;;;;;18.80;13.90;;;;;;;;;;5116560;28;20802;-72
2021/05/29 04:41:20;;;;;;;19.00;13.37;;;;;;;;;;5116077;28;20447;-72
2021/05/29 04:43:47;;;;;;;18.00;15.20;;;;;;;;;;5115964;28;20483;-72
2021/05/29 04:46:14;;;;;;;17.40;14.00;;;;;;;;;;5116252;28;20439;-72
2021/05/29 04:48:40;;;;;;;17.70;12.97;;;;;;;;;;5115657;28;20438;-74
2021/05/29 04:51:14;;;;;;;22.27;14.13;;;;;;;;;;5116511;27;20952;-72
2021/05/29 04:53:42;;;;;;;21.57;14.10;;;;;;;;;;5127989;27;20557;-72
2021/05/29 04:56:09;;;;;;;17.30;13.03;;;;;;;;;;5115483;28;20441;-72
2021/05/29 04:58:37;;;;;;;17.63;13.67;;;;;;;;;;5115962;28;20470;-73
2021/05/29 05:01:04;;;;;;;24.23;14.33;;;;;;;;;;5115704;28;20488;-72
2021/05/29 05:03:31;;;;;;;16.50;12.57;;;;;;;;;;5115597;28;20478;-72
2021/05/29 05:05:58;;;;;;;16.93;13.83;;;;;;;;;;5115306;28;20446;-72
2021/05/29 05:08:25;;;;;;;21.50;15.20;;;;;;;;;;5115896;28;20568;-72
2021/05/29 05:10:55;;;;;;;16.90;13.37;;;;;;;;;;5115522;28;20439;-72
2021/05/29 05:13:21;;;;;;;16.07;13.27;;;;;;;;;;5115466;28;20511;-72
2021/05/29 05:15:48;;;;;;;19.23;14.40;;;;;;;;;;5115465;28;20472;-71
2021/05/29 05:18:15;;;;;;;18.93;14.73;;;;;;;;;;5115493;28;20780;-72
2021/05/29 05:20:42;;;;;;;23.00;14.30;;;;;;;;;;5115432;27;20445;-72
2021/05/29 05:23:12;;;;;;;22.40;14.07;;;;;;;;;;5115252;28;20550;-71
2021/05/29 05:25:39;;;;;;;15.90;12.93;;;;;;;;;;5115552;28;20438;-71
2021/05/29 05:28:06;;;;;;;18.27;14.23;;;;;;;;;;5114995;28;20437;-71
2021/05/29 05:30:33;;;;;;;19.87;14.10;;;;;;;;;;5115122;28;20449;-72
2021/05/29 05:33:03;;;;;;;26.07;13.47;;;;;;;;;;5114791;28;20453;-72
2021/05/29 05:35:30;;;;;;;18.77;13.57;;;;;;;;;;5115584;28;20908;-71
2021/05/29 05:37:57;;;;;;;19.90;14.60;;;;;;;;;;5114965;28;20495;-72
2021/05/29 05:40:24;;;;;;;20.70;15.43;;;;;;;;;;5115128;28;20510;-72
2021/05/29 05:42:51;;;;;;;24.70;14.10;;;;;;;;;;5114907;28;20522;-72
2021/05/29 05:45:18;;;;;;;17.33;12.83;;;;;;;;;;5115014;28;20439;-73
2021/05/29 05:47:45;;;;;;;18.93;14.73;;;;;;;;;;5114195;28;20440;-73
2021/05/29 05:50:12;;;;;;;27.90;16.60;;;;;;;;;;5113805;28;20478;-72
2021/05/29 05:52:39;;;;;;;21.20;17.40;;;;;;;;;;5114379;28;20462;-73
2021/05/29 05:55:07;;;;;;;25.10;17.47;;;;;;;;;;5115135;28;20479;-72
2021/05/29 05:57:33;;;;;;;23.20;17.10;;;;;;;;;;5115207;28;20434;-72
2021/05/29 06:00:01;;;;;;;23.13;19.10;;;;;;;;;;5114460;28;20931;-72
2021/05/29 06:02:28;;;;;;;24.30;17.43;;;;;;;;;;5114219;28;20530;-72
2021/05/29 06:04:55;;;;;;;21.97;16.70;;;;;;;;;;5113636;28;20482;-72
2021/05/29 06:07:21;;;;;;;24.03;17.60;;;;;;;;;;5125428;27;20461;-72
2021/05/29 06:09:48;;;;;;;21.17;14.23;;;;;;;;;;5114423;28;20473;-72
2021/05/29 06:12:15;;;;;;;17.30;12.17;;;;;;;;;;5133656;27;20446;-72
2021/05/29 06:20:21;;;;;;;16.57;11.77;;;;;;;;;;5097769;27;20512;-73
2021/05/29 06:22:48;;;;;;;16.50;12.67;;;;;;;;;;5134574;27;20939;-73
2021/05/29 06:25:15;;;;;;;14.03;11.03;;;;;;;;;;5134828;27;20434;-73
2021/05/29 06:27:42;;;;;;;13.40;10.60;;;;;;;;;;5114791;28;20541;-73
2021/05/29 06:30:09;;;;;;;16.13;11.40;;;;;;;;;;5114262;28;20499;-73
2021/05/29 06:32:37;;;;;;;13.50;11.07;;;;;;;;;;5114028;28;20445;-72
2021/05/29 06:35:05;;;;;;;15.97;10.80;;;;;;;;;;5111515;28;20486;-73
2021/05/29 06:37:32;;;;;;;10.90;9.80;;;;;;;;;;5094017;28;20492;-71
2021/05/29 06:39:58;;;;;;;14.40;11.77;;;;;;;;;;5093578;28;20439;-73
2021/05/29 06:42:25;;;;;;;14.23;11.50;;;;;;;;;;5093900;28;20439;-72
2021/05/29 06:44:52;;;;;;;17.00;11.03;;;;;;;;;;5093389;28;20485;-75
2021/05/29 06:47:18;;;;;;;13.60;10.83;;;;;;;;;;5094066;28;20573;-73
2021/05/29 06:49:46;;;;;;;17.80;12.80;;;;;;;;;;5093863;28;20446;-73
2021/05/29 06:52:13;;;;;;;14.07;10.13;;;;;;;;;;5093811;28;20545;-72
2021/05/29 06:54:51;;;;;;;12.13;10.83;;;;;;;;;;5093963;28;20454;-73
2021/05/29 07:00:04;;;;;;;13.60;10.30;;;;;;;;;;5094175;28;20402;-73
2021/05/29 07:02:31;;;;;;;15.20;11.60;;;;;;;;;;5093915;28;20513;-72
2021/05/29 07:04:58;;;;;;;13.70;11.10;;;;;;;;;;5093132;28;20553;-73
2021/05/29 07:07:25;;;;;;;13.77;10.50;;;;;;;;;;5093505;28;20447;-72
2021/05/29 07:09:52;;;;;;;12.77;10.50;;;;;;;;;;5093498;28;20577;-68
2021/05/29 07:12:18;;;;;;;15.97;9.07;;;;;;;;;;5093200;28;20436;-70
2021/05/29 07:14:45;;;;;;;11.57;8.40;;;;;;;;;;5093840;28;20451;-70
2021/05/29 07:17:13;;;;;;;10.83;9.07;;;;;;;;;;5095685;28;20944;-70
2021/05/29 07:19:40;;;;;;;11.80;9.20;;;;;;;;;;5097406;28;20447;-69
2021/05/29 07:22:08;;;;;;;8.43;6.83;;;;;;;;;;5096937;28;20507;-69
2021/05/29 07:24:35;;;;;;;12.80;7.77;;;;;;;;;;5096832;28;20979;-70
2021/05/29 07:27:02;;;;;;;8.03;7.23;;;;;;;;;;5111432;28;20496;-70
2021/05/29 07:29:29;;;;;;;10.20;8.20;;;;;;;;;;5117706;28;20947;-70
2021/05/29 07:32:02;;;;;;;10.33;8.30;;;;;;;;;;5117588;28;20434;-70
2021/05/29 07:34:29;;;;;;;11.40;8.30;;;;;;;;;;5117867;28;20754;-70
2021/05/29 07:36:55;;;;;;;12.20;9.00;;;;;;;;;;5117370;28;20451;-70
2021/05/29 07:39:23;;;;;;;13.00;9.23;;;;;;;;;;5118083;28;20534;-70
2021/05/29 07:41:50;;;;;;;14.40;10.30;;;;;;;;;;5118586;28;20525;-70
2021/05/29 07:44:16;;;;;;;10.70;8.87;;;;;;;;;;5116905;28;20512;-70
2021/05/29 07:46:43;;;;;;;12.00;10.17;;;;;;;;;;5117170;28;20446;-70
2021/05/29 07:49:10;;;;;;;11.50;9.50;;;;;;;;;;5117240;28;20536;-71
2021/05/29 07:51:37;;;;;;;11.83;8.67;;;;;;;;;;5117204;28;20443;-70
2021/05/29 07:54:04;;;;;;;15.43;8.50;;;;;;;;;;5117311;28;20843;-70
2021/05/29 07:56:32;;;;;;;11.30;8.47;;;;;;;;;;5116771;28;20953;-70
2021/05/29 07:59:04;;;;;;;12.73;9.00;;;;;;;;;;5116681;28;20962;-70
2021/05/29 08:01:31;;;;;;;9.33;8.43;;;;;;;;;;5117169;28;20483;-71
2021/05/29 08:03:58;;;;;;;11.03;7.50;;;;;;;;;;5116421;28;20482;-70
2021/05/29 08:06:26;;;;;;;9.90;8.23;;;;;;;;;;5116806;28;20530;-71
2021/05/29 08:08:52;;;;;;;10.33;7.97;;;;;;;;;;5116433;28;20450;-70
2021/05/29 08:11:21;;;;;;;11.30;8.10;;;;;;;;;;5117130;28;20521;-70
2021/05/29 08:13:49;;;;;;;10.30;8.30;;;;;;;;;;5116327;28;20451;-70
2021/05/29 08:16:17;;;;;;;9.60;7.63;;;;;;;;;;5116578;28;20533;-70
2021/05/29 08:18:44;;;;;;;8.40;7.47;;;;;;;;;;5116598;28;20443;-70
2021/05/29 08:21:11;;;;;;;10.10;7.77;;;;;;;;;;5116758;28;20503;-71
2021/05/29 08:23:38;;;;;;;12.70;9.47;;;;;;;;;;5117059;28;20470;-70
2021/05/29 08:26:04;;;;;;;10.47;8.93;;;;;;;;;;5116379;28;20470;-70
2021/05/29 08:28:31;;;;;;;9.03;7.50;;;;;;;;;;5116524;28;20430;-72
2021/05/29 08:30:59;;;;;;;11.87;8.40;;;;;;;;;;5116145;28;20447;-69
2021/05/29 08:33:26;;;;;;;11.37;8.37;;;;;;;;;;5116718;28;20447;-73
2021/05/29 08:35:53;;;;;;;10.10;9.10;;;;;;;;;;5116184;28;20453;-73
2021/05/29 08:38:20;;;;;;;10.93;9.63;;;;;;;;;;5116293;28;20537;-70
2021/05/29 08:40:46;;;;;;;13.40;8.50;;;;;;;;;;5116087;28;20446;-74
2021/05/29 08:43:13;;;;;;;9.53;8.40;;;;;;;;;;5115675;28;20971;-72
2021/05/29 08:45:40;;;;;;;13.03;9.90;;;;;;;;;;5115650;28;20446;-73
2021/05/29 08:48:09;;;;;;;9.73;8.40;;;;;;;;;;5115641;28;20446;-73
2021/05/29 08:50:35;;;;;;;13.40;8.70;;;;;;;;;;5116461;28;20931;-72
2021/05/29 08:53:02;;;;;;;15.67;9.40;;;;;;;;;;5115996;27;20527;-72
2021/05/29 08:55:29;;;;;;;13.27;10.00;;;;;;;;;;5115786;28;20867;-72
2021/05/29 08:57:56;;;;;;;13.80;11.00;;;;;;;;;;5115757;28;20482;-74
2021/05/29 09:00:23;;;;;;;15.37;10.03;;;;;;;;;;5136437;27;20445;-72
2021/05/29 09:02:57;;;;;;;12.13;10.27;;;;;;;;;;5136409;27;20938;-72
2021/05/29 09:05:33;;;;;;;13.60;9.47;;;;;;;;;;5136342;27;20477;-72
2021/05/29 09:08:04;;;;;;;12.30;10.47;;;;;;;;;;5137165;27;20503;-72
2021/05/29 09:10:31;;;;;;;15.63;11.97;;;;;;;;;;5135914;27;20525;-72
2021/05/29 09:13:06;;;;;;;11.03;9.70;;;;;;;;;;5136129;27;20938;-71
2021/05/29 09:15:49;;;;;;;12.17;9.67;;;;;;;;;;5136178;27;20501;-73
2021/05/29 09:18:26;;;;;;;12.50;9.30;;;;;;;;;;5136202;27;20444;-72
2021/05/29 09:20:54;;;;;;;15.83;10.47;;;;;;;;;;5135982;27;20465;-73
2021/05/29 09:23:21;;;;;;;12.73;10.10;;;;;;;;;;5135932;27;20513;-71
2021/05/29 09:25:52;;;;;;;15.20;10.60;;;;;;;;;;5136547;27;20469;-72
2021/05/29 09:28:22;;;;;;;15.60;10.40;;;;;;;;;;5135909;27;20454;-72
2021/05/29 09:30:51;;;;;;;12.17;10.20;;;;;;;;;;5136327;27;20839;-72
2021/05/29 09:33:18;;;;;;;15.10;10.60;;;;;;;;;;5135317;27;20493;-72
2021/05/29 09:35:47;;;;;;;12.47;9.03;;;;;;;;;;5135632;27;20506;-72
2021/05/29 09:38:15;;;;;;;11.90;8.83;;;;;;;;;;5135099;27;20910;-71
2021/05/29 09:40:49;;;;;;;11.47;9.90;;;;;;;;;;5135183;27;20946;-71
2021/05/29 09:43:15;;;;;;;14.03;9.40;;;;;;;;;;5135232;27;20422;-72
2021/05/29 09:45:42;;;;;;;11.80;9.37;;;;;;;;;;5135110;27;20445;-72
2021/05/29 09:48:13;;;;;;;14.03;9.20;;;;;;;;;;5135037;27;20524;-72
2021/05/29 09:50:54;;;;;;;13.73;10.67;;;;;;;;;;5135323;27;20437;-72
2021/05/29 09:53:26;;;;;;;15.20;10.60;;;;;;;;;;5134584;27;20430;-72
2021/05/29 09:55:53;;;;;;;15.63;10.20;;;;;;;;;;5135430;27;20882;-71
2021/05/29 09:58:20;;;;;;;12.23;9.30;;;;;;;;;;5134862;27;20528;-72
2021/05/29 10:00:47;;;;;;;10.30;8.63;;;;;;;;;;5134856;27;20442;-73
2021/05/29 10:03:14;;;;;;;12.40;8.13;;;;;;;;;;5134731;27;20529;-73
2021/05/29 10:05:43;;;;;;;12.50;8.60;;;;;;;;;;5134873;27;20473;-74
2021/05/29 10:08:13;;;;;;;9.50;7.90;;;;;;;;;;5135456;27;20453;-72
2021/05/29 10:10:41;;;;;;;11.93;8.93;;;;;;;;;;5135031;27;20430;-72
2021/05/29 10:13:07;;;;;;;9.00;8.10;;;;;;;;;;5134579;27;20580;-74
2021/05/29 10:15:34;;;;;;;10.87;9.27;;;;;;;;;;5134765;27;20469;-73
2021/05/29 10:18:03;;;;;;;12.57;9.17;;;;;;;;;;5134585;27;20462;-73
2021/05/29 10:20:32;;;;;;;10.83;8.90;;;;;;;;;;5133497;27;20446;-74
2021/05/29 10:22:59;;;;;;;12.30;8.50;;;;;;;;;;5133867;27;20450;-73
2021/05/29 10:25:26;;;;;;;10.17;8.47;;;;;;;;;;5134418;27;20552;-74
2021/05/29 10:27:56;;;;;;;10.27;7.50;;;;;;;;;;5134754;27;20453;-73
2021/05/29 10:30:23;;;;;;;9.07;8.10;;;;;;;;;;5134735;27;20631;-74
2021/05/29 10:33:09;;;;;;;8.20;7.40;;;;;;;;;;5134895;27;20763;-73
2021/05/29 10:35:37;;;;;;;19.43;13.90;;;;;;;;;;5134282;27;20438;-74
2021/05/29 10:38:04;;;;;;;22.10;14.23;;;;;;;;;;5135021;27;20447;-73
2021/05/29 10:40:34;;;;;;;9.13;8.23;;;;;;;;;;5135013;28;20465;-73
2021/05/29 10:43:22;;;;;;;10.33;8.50;;;;;;;;;;5134959;28;20776;-74
2021/05/29 10:46:13;;;;;;;10.10;8.53;;;;;;;;;;5127215;28;20485;-74
2021/05/29 10:48:43;;;;;;;11.37;8.80;;;;;;;;;;5135002;28;20430;-74
2021/05/29 10:51:11;;;;;;;9.57;7.90;;;;;;;;;;5137368;27;20876;-73
2021/05/29 10:53:39;;;;;;;9.80;8.00;;;;;;;;;;5138879;27;20531;-73
2021/05/29 10:56:24;;;;;;;11.27;8.03;;;;;;;;;;5138811;27;20851;-73
2021/05/29 10:59:06;;;;;;;10.53;8.50;;;;;;;;;;5138653;27;20441;-73
2021/05/29 11:01:51;;;;;;;11.00;9.20;;;;;;;;;;5138326;27;20529;-74
2021/05/29 11:04:22;;;;;;;11.10;8.63;;;;;;;;;;5138530;27;20541;-74
2021/05/29 11:06:51;;;;;;;10.37;7.70;;;;;;;;;;5138218;27;20438;-75
2021/05/29 11:09:19;;;;;;;8.27;7.30;;;;;;;;;;5139115;27;20538;-74
2021/05/29 11:11:56;;;;;;;12.40;8.33;;;;;;;;;;5138302;27;20451;-73
2021/05/29 11:14:23;;;;;;;11.40;8.33;;;;;;;;;;5138444;27;20529;-72
2021/05/29 11:17:09;;;;;;;11.27;7.37;;;;;;;;;;5138322;27;20439;-73
2021/05/29 11:19:37;;;;;;;12.60;8.23;;;;;;;;;;5138579;27;20434;-72
2021/05/29 11:22:05;;;;;;;11.50;8.80;;;;;;;;;;5138153;27;20448;-72
2021/05/29 11:24:33;;;;;;;9.43;8.43;;;;;;;;;;5138043;27;20474;-73
2021/05/29 11:27:00;;;;;;;9.97;8.10;;;;;;;;;;5138118;27;20507;-73
2021/05/29 11:29:27;;;;;;;16.07;8.47;;;;;;;;;;5137654;27;20443;-72
2021/05/29 11:31:54;;;;;;;13.13;8.83;;;;;;;;;;5138400;27;20520;-73
2021/05/29 11:34:20;;;;;;;12.57;8.47;;;;;;;;;;5130386;27;20455;-73
2021/05/29 11:36:48;;;;;;;10.33;8.30;;;;;;;;;;5130688;27;20445;-73
2021/05/29 11:39:17;;;;;;;12.00;9.33;;;;;;;;;;5137832;27;20433;-72
2021/05/29 11:41:44;;;;;;;11.23;8.53;;;;;;;;;;5138071;27;20517;-73
2021/05/29 11:44:20;;;;;;;11.80;8.47;;;;;;;;;;5137940;27;20470;-73
2021/05/29 11:46:47;;;;;;;10.73;8.80;;;;;;;;;;5137383;27;20485;-73
2021/05/29 11:49:14;;;;;;;10.47;8.47;;;;;;;;;;5137605;27;20482;-73
2021/05/29 11:51:42;;;;;;;9.23;8.27;;;;;;;;;;5137820;27;20780;-74
2021/05/29 11:54:10;;;;;;;13.20;9.23;;;;;;;;;;5137494;27;20469;-73
2021/05/29 11:56:38;;;;;;;9.37;8.37;;;;;;;;;;5137713;27;20787;-73
2021/05/29 11:59:06;;;;;;;9.63;8.30;;;;;;;;;;5136976;27;20446;-73
2021/05/29 12:01:33;;;;;;;10.60;8.97;;;;;;;;;;5137107;27;20434;-74
2021/05/29 12:04:01;;;;;;;11.50;9.70;;;;;;;;;;5129539;27;20578;-74
2021/05/29 12:06:42;;;;;;;10.00;8.93;;;;;;;;;;5116811;28;20522;-76
2021/05/29 12:09:15;;;;;;;10.03;8.20;;;;;;;;;;5114098;28;20447;-74
2021/05/29 12:11:42;;;;;;;9.57;8.60;;;;;;;;;;5117087;28;20479;-75
2021/05/29 12:14:11;;;;;;;10.47;8.57;;;;;;;;;;5116909;28;20435;-74
2021/05/29 12:16:38;;;;;;;9.50;8.60;;;;;;;;;;5116621;28;20530;-74
2021/05/29 12:19:06;;;;;;;9.10;8.20;;;;;;;;;;5116873;28;20434;-73
2021/05/29 12:21:43;;;;;;;8.30;7.50;;;;;;;;;;5116553;28;20439;-73
2021/05/29 12:24:10;;;;;;;8.97;8.07;;;;;;;;;;5116327;28;20471;-73
2021/05/29 12:26:37;;;;;;;11.30;9.00;;;;;;;;;;5116232;28;20552;-72
2021/05/29 12:29:04;;;;;;;8.60;7.80;;;;;;;;;;5116205;28;20457;-74
2021/05/29 12:31:48;;;;;;;10.23;9.20;;;;;;;;;;5116401;28;20434;-72
2021/05/29 12:34:14;;;;;;;11.10;9.93;;;;;;;;;;5115910;28;20433;-74
2021/05/29 12:36:54;;;;;;;10.47;8.73;;;;;;;;;;5115674;28;20441;-73
2021/05/29 12:39:21;;;;;;;9.27;8.37;;;;;;;;;;5116326;28;20469;-73
2021/05/29 12:41:49;;;;;;;11.37;8.00;;;;;;;;;;5116120;28;20455;-73
2021/05/29 12:44:15;;;;;;;9.20;8.37;;;;;;;;;;5115635;28;21058;-73
2021/05/29 12:46:42;;;;;;;10.03;8.60;;;;;;;;;;5115744;28;20438;-74
2021/05/29 12:49:12;;;;;;;9.40;7.70;;;;;;;;;;5115996;28;20431;-73
2021/05/29 12:51:42;;;;;;;9.57;8.60;;;;;;;;;;5116342;28;20436;-74
2021/05/29 12:54:09;;;;;;;9.43;8.47;;;;;;;;;;5116037;28;20426;-73
2021/05/29 12:56:36;;;;;;;8.57;7.60;;;;;;;;;;5115389;28;20434;-72
2021/05/29 12:59:05;;;;;;;9.90;8.87;;;;;;;;;;5115524;28;20438;-73
2021/05/29 13:01:51;;;;;;;8.90;7.77;;;;;;;;;;5115314;28;20531;-73
2021/05/29 13:09:55;;;;;;;14.07;9.90;;;;;;;;;;5115373;28;20450;-73
2021/05/29 13:12:22;;;;;;;11.90;10.70;;;;;;;;;;5115385;28;20476;-72
2021/05/29 13:14:49;;;;;;;10.00;9.00;;;;;;;;;;5114836;28;20932;-71
2021/05/29 13:17:24;;;;;;;10.77;9.67;;;;;;;;;;5115473;28;20537;-73
2021/05/29 13:19:54;;;;;;;9.90;8.90;;;;;;;;;;5115301;28;20893;-75
2021/05/29 13:22:21;;;;;;;9.03;7.10;;;;;;;;;;5115034;28;20440;-73
2021/05/29 13:24:53;;;;;;;12.23;9.97;;;;;;;;;;5115148;28;20475;-73
2021/05/29 13:27:38;;;;;;;12.07;8.97;;;;;;;;;;5115488;28;20490;-75
2021/05/29 13:30:08;;;;;;;11.60;9.00;;;;;;;;;;5114830;28;20478;-74
2021/05/29 13:32:35;;;;;;;18.30;13.80;;;;;;;;;;5114787;28;20487;-74
2021/05/29 13:35:02;;;;;;;21.37;17.50;;;;;;;;;;5114664;28;20445;-75
2021/05/29 13:37:29;;;;;;;9.30;7.90;;;;;;;;;;5114578;28;20483;-74
2021/05/29 13:39:55;;;;;;;12.33;8.20;;;;;;;;;;5114513;28;20441;-74
2021/05/29 13:42:22;;;;;;;10.63;8.57;;;;;;;;;;5114818;28;20439;-74
2021/05/29 13:44:49;;;;;;;8.63;7.70;;;;;;;;;;5114760;28;20957;-75
2021/05/29 13:47:17;;;;;;;9.07;7.00;;;;;;;;;;5122592;27;20446;-74
2021/05/29 13:49:44;;;;;;;9.07;8.27;;;;;;;;;;5135250;27;20448;-74
2021/05/29 13:52:11;;;;;;;9.30;8.27;;;;;;;;;;5134738;27;20985;-74
2021/05/29 13:54:38;;;;;;;8.07;7.13;;;;;;;;;;5134616;27;20497;-75
2021/05/29 13:57:06;;;;;;;12.07;7.60;;;;;;;;;;5134684;27;20430;-73
2021/05/29 13:59:32;;;;;;;12.77;9.47;;;;;;;;;;5135003;27;20812;-74
2021/05/29 14:01:59;;;;;;;9.70;8.67;;;;;;;;;;5134637;27;21007;-74
2021/05/29 14:04:27;;;;;;;9.53;8.63;;;;;;;;;;5134652;27;20571;-73
2021/05/29 14:06:53;;;;;;;8.93;8.10;;;;;;;;;;5134453;27;20524;-73
2021/05/29 14:09:20;;;;;;;7.70;6.70;;;;;;;;;;5134697;27;20453;-74
2021/05/29 14:11:50;;;;;;;9.93;6.90;;;;;;;;;;5134497;27;20791;-73
2021/05/29 14:14:17;;;;;;;8.37;7.63;;;;;;;;;;5134311;27;20442;-74
2021/05/29 14:16:44;;;;;;;8.13;7.27;;;;;;;;;;5119250;27;20446;-73
2021/05/29 14:19:10;;;;;;;8.73;6.73;;;;;;;;;;5113803;28;20951;-74
2021/05/29 14:21:38;;;;;;;9.73;6.97;;;;;;;;;;5114408;28;20594;-73
2021/05/29 14:24:05;;;;;;;7.37;6.37;;;;;;;;;;5113852;28;20481;-74
2021/05/29 14:26:32;;;;;;;9.00;7.27;;;;;;;;;;5113311;28;20489;-75
2021/05/29 14:28:59;;;;;;;8.37;7.50;;;;;;;;;;5113535;28;20949;-74
2021/05/29 14:31:26;;;;;;;10.07;8.10;;;;;;;;;;5113657;28;20873;-74
2021/05/29 14:33:54;;;;;;;7.80;7.10;;;;;;;;;;5113557;28;20451;-73
2021/05/29 14:36:22;;;;;;;9.10;7.57;;;;;;;;;;5113793;28;20923;-74
2021/05/29 14:38:50;;;;;;;12.37;8.23;;;;;;;;;;5113828;28;20449;-73
2021/05/29 14:41:18;;;;;;;7.17;6.47;;;;;;;;;;5114537;28;20451;-74
2021/05/29 14:43:46;;;;;;;7.20;6.50;;;;;;;;;;5123318;28;20452;-74
2021/05/29 14:46:13;;;;;;;7.57;6.57;;;;;;;;;;5114560;28;20443;-74
2021/05/29 14:48:40;;;;;;;12.90;7.23;;;;;;;;;;5133962;28;20536;-72
2021/05/29 14:53:53;;;;;;;7.93;6.70;;;;;;;;;;5123214;28;20428;-74